• Join FlightAware (Why Join?)
  • Login
  • US Flag 
08:33PM EDT


 

Airport Tracker/Info


-or-


 

Live Flight TrackerFlight Track Log ✈ GJS3707 ✈ 15-Sep-2013 ✈ KORD - KBOI

Flight Track Log - Related Links

Times and Time Zones

All times are in EDT time to prevent confusion due to time zone crossing. See the GJS3707 flight status page for this flight to view local times or setup timezone preferences in your user account.

Time Position Orientation Groundspeed Altitude Reporting Facility
EDT Latitude Longitude Course Direction KTS MPH feet Rate Location/Type
10:53AM 41.9983 -87.9431 265° West 182 209 34,000  Level Chicago Center
10:54AM 42.0153 -88.0036 291° West 186 214 3,800 -14,040 Descending Chicago Center
10:55AM 42.0350 -88.0889 287° West 218 251 5,000 720 Climbing Chicago Center
10:57AM 42.0931 -88.5184 270° West  Level Estimated
10:57AM 42.0358 -88.1892 271° West 250 288 5,400  Level Chicago Center
10:58AM 42.0651 -88.6714 256° West  Level FlightAware Approximate
10:58AM 42.0314 -88.2956 267° West 248 285 8,400  Level Chicago Center
10:59AM 42.0925 -88.8246 265° West  Level Estimated
10:59AM 42.0219 -88.3856 262° West 244 281 10,400  Level Chicago Center
11:00AM 42.0203 -88.4917 269° West 279 321 11,800 1,500 Climbing Chicago Center
11:01AM 42.0381 -88.6047 282° West 305 351 13,500 1,620 Climbing Chicago Center
11:02AM 42.0533 -88.7236 280° West 322 371 15,200 1,500 Climbing Chicago Center
11:03AM 42.0711 -88.8719 279° West 340 391 16,700 1,500 Climbing Chicago Center
11:04AM 42.0744 -89.0028 272° West 354 407 18,400 1,320 Climbing Chicago Center
11:05AM 42.0719 -89.1308 269° West 348 400 19,500 1,140 Climbing Chicago Center
11:06AM 42.0697 -89.2664 269° West 364 419 20,800 1,260 Climbing Chicago Center
11:07AM 42.0700 -89.4019 270° West 366 421 22,200 1,140 Climbing Chicago Center
11:08AM 42.0736 -89.5592 272° West 369 425 23,200 900 Climbing Chicago Center
11:09AM 42.0806 -89.7008 274° West 382 440 24,100 900 Climbing Chicago Center
11:10AM 42.1261 -89.8289 296° West 383 441 25,100 780 Climbing Chicago Center
11:11AM 42.1722 -89.9611 295° West 392 451 25,800 720 Climbing Chicago Center
11:12AM 42.2183 -90.0969 295° West 402 463 26,700 900 Climbing Chicago Center
11:13AM 42.2769 -90.2542 297° West 396 456 27,700 660 Climbing Chicago Center
11:14AM 42.2953 -90.3950 280° West 384 442 28,100 300 Climbing Chicago Center
11:15AM 42.3133 -90.5344 280° West 382 440 28,400 240 Climbing Chicago Center
11:16AM 42.3308 -90.6781 279° West 389 448 28,700 420 Climbing Chicago Center
11:17AM 42.3483 -90.8261 279° West 400 460 29,300 720 Climbing Chicago Center
11:18AM 42.3686 -91.0050 279° West 403 464 30,300 960 Climbing Chicago Center
11:19AM 42.3850 -91.1542 279° West 404 465 31,300 960 Climbing Chicago Center
11:20AM 42.4033 -91.2953 280° West 390 449 32,400 960 Climbing Chicago Center
11:21AM 42.4236 -91.4369 281° West 384 442 33,400 780 Climbing Chicago Center
11:22AM 42.4456 -91.5747 282° West 375 432 34,000 240 Climbing Chicago Center
11:23AM 42.4678 -91.7175 282° West 382 440 34,000  Level Chicago Center
11:24AM 42.4911 -91.8672 282° West 398 458 34,000  Level Chicago Center
11:25AM 42.5219 -92.0486 283° West 409 471 34,000  Level Chicago Center
11:26AM 42.5628 -92.1958 291° West 417 480 34,000  Level Chicago Center
11:27AM 42.5933 -92.3444 286° West 410 472 34,000  Level Chicago Center
11:28AM 42.6050 -92.4975 276° West 410 472 34,000  Level Chicago Center
11:30AM 42.6117 -92.6494 273° West 408 470 34,000  Level Chicago Center
11:31AM 42.6242 -92.7994 277° West 404 465 34,000  Level Chicago Center
11:32AM 42.6514 -92.9797 282° West 410 472 34,000 180 Level Chicago Center
11:33AM 42.6728 -93.1311 281° West 412 474 34,400 360 Climbing Chicago Center
11:33AM 42.6861 -93.2211 281° West 410 472 34,700 540 Climbing Minneapolis Center
11:34AM 42.7072 -93.3725 281° West 411 473 35,400 600 Climbing Minneapolis Center
11:35AM 42.7283 -93.5200 281° West 404 465 36,000 240 Climbing Minneapolis Center
11:36AM 42.7536 -93.6964 281° West 401 461 36,000  Level Minneapolis Center
11:37AM 42.7736 -93.8475 280° West 408 470 36,000  Level Minneapolis Center
11:38AM 42.7936 -93.9997 280° West 409 471 36,000  Level Minneapolis Center
11:39AM 42.8147 -94.1525 281° West 413 475 36,000  Level Minneapolis Center
11:40AM 42.8319 -94.3039 279° West 411 473 36,000  Level Minneapolis Center
11:41AM 42.8511 -94.4572 280° West 413 475 36,000  Level Minneapolis Center
11:43AM 42.8764 -94.6281 281° West 411 473 36,000  Level Minneapolis Center
11:44AM 42.8956 -94.7814 280° West 409 471 36,000  Level Minneapolis Center
11:45AM 42.9153 -94.9372 280° West 416 479 36,000  Level Minneapolis Center
11:46AM 42.9378 -95.1231 279° West 416 479 36,000  Level Minneapolis Center
11:47AM 42.9572 -95.2783 280° West 416 479 36,000  Level Minneapolis Center
11:48AM 42.9764 -95.4347 280° West 418 481 36,000  Level Minneapolis Center
11:49AM 42.9944 -95.5917 279° West 419 482 36,000  Level Minneapolis Center
11:50AM 43.0142 -95.7500 280° West 421 484 36,000  Level Minneapolis Center
11:51AM 43.0319 -95.9086 279° West 422 486 36,000  Level Minneapolis Center
11:52AM 43.0500 -96.0661 279° West 419 482 36,000  Level Minneapolis Center
11:53AM 43.0686 -96.2236 279° West 418 481 36,000  Level Minneapolis Center
11:54AM 43.0897 -96.4100 279° West 414 476 36,000  Level Minneapolis Center
11:55AM 43.1067 -96.5653 279° West 413 475 36,000  Level Minneapolis Center
11:56AM 43.1239 -96.7200 279° West 412 474 36,000  Level Minneapolis Center
11:57AM 43.1408 -96.8767 278° West 414 476 36,000  Level Minneapolis Center
11:58AM 43.1572 -97.0317 278° West 413 475 36,000  Level Minneapolis Center
11:59AM 43.1742 -97.1900 278° West 418 481 36,000  Level Minneapolis Center
12:00PM 43.1903 -97.3475 278° West 417 480 36,000  Level Minneapolis Center
12:01PM 43.2097 -97.5372 278° West 418 481 36,000  Level Minneapolis Center
12:02PM 43.2228 -97.6628 278° West 417 480 36,000  Level Minneapolis Center
12:03PM 43.2422 -97.8519 278° West 418 481 36,000  Level Minneapolis Center
12:04PM 43.2567 -98.0067 277° West 412 474 36,000  Level Minneapolis Center
12:05PM 43.2711 -98.1639 277° West 415 478 36,000  Level Minneapolis Center
12:06PM 43.2869 -98.3222 278° West 418 481 36,000  Level Minneapolis Center
12:07PM 43.3014 -98.4792 277° West 416 479 36,000  Level Minneapolis Center
12:08PM 43.3158 -98.6397 277° West 422 486 36,000  Level Minneapolis Center
12:09PM 43.3328 -98.8294 277° West 419 482 36,000  Level Minneapolis Center
12:10PM 43.3478 -98.9897 277° West 423 487 36,000  Level Minneapolis Center
12:11PM 43.3608 -99.1453 277° West 426 490 36,000  Level Minneapolis Center
12:12PM 43.3758 -99.3053 277° West 423 487 36,000  Level Minneapolis Center
12:13PM 43.3894 -99.4694 277° West 429 494 36,000  Level Minneapolis Center
12:14PM 43.4028 -99.6319 276° West 428 493 36,000  Level Minneapolis Center
12:15PM 43.4164 -99.7964 277° West 430 495 36,000  Level Minneapolis Center
12:16PM 43.4319 -99.9928 276° West 431 496 36,000  Level Minneapolis Center
12:17PM 43.4450 -100.1558 276° West 430 495 36,000  Level Minneapolis Center
12:19PM 43.4572 -100.3214 276° West 432 497 36,000 120 Level Minneapolis Center
12:19PM 43.4675 -100.4514 276° West 434 499 36,300 660 Climbing Denver Center
12:20PM 43.4794 -100.6136 276° West 427 491 37,300 780 Climbing Denver Center
12:21PM 43.4900 -100.7675 275° West 413 475 38,000 300 Climbing Denver Center
12:22PM 43.5011 -100.9217 276° West 407 468 38,000  Level Denver Center
12:24PM 43.5144 -101.1131 276° West 413 475 38,000  Level Denver Center
12:25PM 43.5267 -101.2769 276° West 423 487 38,000  Level Denver Center
12:26PM 43.5356 -101.4072 275° West 426 490 38,000  Level Denver Center
12:27PM 43.5481 -101.6039 275° West 428 493 38,000  Level Denver Center
12:28PM 43.5592 -101.7667 275° West 427 491 38,000  Level Denver Center
12:29PM 43.5678 -101.8975 275° West 428 493 38,000  Level Denver Center
12:30PM 43.5803 -102.1167 275° West 430 495 38,000  Level Denver Center
12:31PM 43.5867 -102.2708 273° West 426 490 38,000  Level Denver Center
12:32PM 43.5978 -102.4558 275° West 429 494 38,000  Level Denver Center
12:33PM 43.6111 -102.6703 275° West 437 503 38,000  Level Denver Center
12:34PM 43.6211 -102.8317 275° West 441 507 38,000  Level Denver Center
12:35PM 43.6325 -103.0186 275° West 440 506 38,000  Level Denver Center
12:36PM 43.6408 -103.1769 274° West 437 503 38,000  Level Denver Center
12:37PM 43.6508 -103.3653 274° West 439 505 38,000  Level Denver Center
12:38PM 43.6589 -103.5253 274° West 438 504 38,000  Level Denver Center
12:39PM 43.6664 -103.7097 273° West 435 501 38,000  Level Denver Center
12:40PM 43.6739 -103.8719 274° West 442 509 38,000  Level Denver Center
12:41PM 43.6831 -104.0583 274° West 439 505 38,000  Level Denver Center
12:42PM 43.6900 -104.2189 273° West 438 504 38,000  Level Denver Center
12:43PM 43.6975 -104.4069 273° West 439 505 38,000  Level Denver Center
12:44PM 43.7042 -104.5681 273° West 440 506 38,000  Level Denver Center
12:45PM 43.7111 -104.7317 273° West 444 511 38,000  Level Denver Center
12:46PM 43.7178 -104.9222 273° West 446 513 38,000  Level Denver Center
12:47PM 43.7242 -105.0864 273° West 448 516 38,000  Level Denver Center
12:49PM 43.7303 -105.2786 273° West 449 517 38,000  Level Denver Center
12:50PM 43.7361 -105.4444 273° West 451 519 38,000  Level Denver Center
12:51PM 43.7419 -105.6386 272° West 453 521 38,000  Level Denver Center
12:52PM 43.7467 -105.8033 272° West 451 519 38,000  Level Denver Center
12:53PM 43.7500 -106.0000 271° West 459 528 38,000  Level Denver Center
12:54PM 43.7564 -106.1672 273° West 458 527 38,000  Level Denver Center
12:55PM 43.7600 -106.3317 272° West 452 520 38,000  Level Denver Center
12:56PM 43.7631 -106.5267 271° West 454 522 38,000  Level Denver Center
12:57PM 43.7672 -106.7231 272° West 457 526 38,000  Level Denver Center
12:58PM 43.7700 -106.9078 271° West 460 529 38,000  Level Denver Center
12:59PM 43.7736 -107.0853 272° West 462 532 38,000  Level Denver Center
01:00PM 43.7753 -107.2642 271° West 464 534 38,000  Level Denver Center
01:01PM 43.7783 -107.4414 271° West 463 533 38,000  Level Denver Center
01:02PM 43.7811 -107.6203 271° West 464 534 38,000  Level Denver Center
01:03PM 43.7831 -107.7986 271° West 463 533 38,000  Level Denver Center
01:04PM 43.7858 -108.0161 271° West 468 539 38,000  Level Salt Lake Center
01:05PM 43.7867 -108.1958 270° West 468 539 38,000  Level Salt Lake Center
01:06PM 43.7883 -108.3758 271° West 468 539 38,000  Level Salt Lake Center
01:07PM 43.7894 -108.5544 271° West 465 535 38,000  Level Salt Lake Center
01:08PM 43.7900 -108.7350 270° West 468 539 38,000  Level Salt Lake Center
01:09PM 43.7906 -108.9511 270° West 469 540 38,000  Level Salt Lake Center
01:10PM 43.7908 -109.1322 270° West 471 542 38,000  Level Salt Lake Center
01:11PM 43.7903 -109.3128 270° West 471 542 38,000  Level Salt Lake Center
01:12PM 43.7897 -109.5044 270° West 469 540 38,000  Level Salt Lake Center
01:13PM 43.7883 -109.6794 269° West 474 545 38,000  Level Salt Lake Center
01:14PM 43.7872 -109.8839 270° West 475 547 38,000  Level Salt Lake Center
01:15PM 43.7861 -110.0600 270° West 478 550 38,000  Level Salt Lake Center
01:16PM 43.7850 -110.2653 270° West 477 549 38,000  Level Salt Lake Center
01:18PM 43.7825 -110.4406 269° West 476 548 38,000  Level Salt Lake Center
01:19PM 43.7797 -110.6178 269° West 478 550 38,000  Level Salt Lake Center
01:20PM 43.7772 -110.8239 269° West 481 554 38,000  Level Salt Lake Center
01:21PM 43.7736 -111.0011 268° West 480 552 38,000  Level Salt Lake Center
01:22PM 43.7706 -111.2047 269° West 475 547 38,000  Level Salt Lake Center
01:23PM 43.7656 -111.3803 268° West 475 547 38,000  Level Salt Lake Center
01:24PM 43.7617 -111.5836 269° West 473 544 38,000  Level Salt Lake Center
01:25PM 43.7578 -111.7575 268° West 471 542 38,000  Level Salt Lake Center
01:26PM 43.7539 -111.9308 268° West 469 540 38,000  Level Salt Lake Center
01:27PM 43.7481 -112.1308 268° West 466 536 38,000  Level Salt Lake Center
01:28PM 43.7433 -112.3031 268° West 467 537 38,000  Level Salt Lake Center
01:29PM 43.7364 -112.5025 267° West 465 535 38,000  Level Salt Lake Center
01:30PM 43.7311 -112.6725 268° West 463 533 38,000  Level Salt Lake Center
01:31PM 43.7247 -112.8753 268° West 469 540 38,000  Level Salt Lake Center
01:32PM 43.7194 -113.0456 268° West 466 536 38,000  Level Salt Lake Center
01:33PM 43.7131 -113.2461 268° West 467 537 38,000  Level Salt Lake Center
01:34PM 43.7061 -113.4156 267° West 464 534 38,000  Level Salt Lake Center
01:35PM 43.6989 -113.6169 267° West 470 541 38,000 -780 Level Salt Lake Center
01:36PM 43.6922 -113.7839 267° West 457 526 36,500 -1,920 Descending Salt Lake Center
01:37PM 43.6842 -113.9631 267° West 444 511 34,100 -2,280 Descending Salt Lake Center
01:38PM 43.6764 -114.1419 267° West 468 539 31,900 -2,220 Descending Salt Lake Center
01:39PM 43.6689 -114.3233 267° West 470 541 29,600 -2,280 Descending Salt Lake Center
01:40PM 43.6597 -114.4961 266° West 452 520 27,300 -2,220 Descending Salt Lake Center
01:41PM 43.6517 -114.6625 266° West 434 499 25,100 -2,280 Descending Salt Lake Center
01:42PM 43.6425 -114.8547 266° West 418 481 22,600 -2,220 Descending Salt Lake Center
01:43PM 43.6342 -115.0111 266° West 409 471 20,600 -2,040 Descending Salt Lake Center
01:44PM 43.6264 -115.1636 266° West 401 461 18,500 -2,040 Descending Salt Lake Center
01:45PM 43.6175 -115.3136 265° West 380 437 16,400 -2,040 Descending Salt Lake Center
01:46PM 43.6092 -115.4600 266° West 369 425 14,300 -1,680 Descending Salt Lake Center
01:47PM 43.6019 -115.6000 266° West 355 409 13,000 -660 Descending Salt Lake Center
01:49PM 43.5931 -115.7392 265° West 351 404 13,000 -420 Level Salt Lake Center
01:50PM 43.5864 -115.8633 266° West 314 361 12,200 -1,200 Descending Salt Lake Center
01:51PM 43.5950 -115.9808 276° West 298 343 10,600 -1,620 Descending Salt Lake Center
01:52PM 43.6022 -116.0850 276° West 288 331 8,900 -1,260 Descending Salt Lake Center
01:53PM 43.6286 -116.1811 291° West 254 292 8,000 -900 Descending Salt Lake Center
01:54PM 43.6558 -116.2567 296° West 233 268 7,100 -780 Descending Salt Lake Center
01:55PM 43.6831 -116.3336 296° West 224 258 6,400 -1,020 Descending Salt Lake Center
01:56PM 43.6464 -116.3772 221° Southwest 186 214 5,100 -1,140 Descending Salt Lake Center
01:57PM 43.6117 -116.3425 144° Southeast 174 200 4,100 -600 Descending Salt Lake Center
01:58PM 43.5922 -116.3025 124° Southeast 145 167 3,900 -420 Descending Salt Lake Center
01:59PM 43.5764 -116.2578 116° Southeast 135 155 3,300 -600 Descending Salt Lake Center